createdAt,value
2023-04-20T00:00:45.378Z,9.443380
2023-04-20T00:01:45.388Z,9.443380
2023-04-20T00:02:45.475Z,9.443485
2023-04-20T00:03:45.544Z,9.443567
2023-04-20T00:04:45.330Z,9.443604
2023-04-20T00:05:45.327Z,9.443617
2023-04-20T00:06:45.384Z,9.443563
2023-04-20T00:07:45.370Z,9.443603
2023-04-20T00:08:45.296Z,9.443503
2023-04-20T00:09:45.319Z,9.443540
2023-04-20T00:10:45.338Z,9.443627
2023-04-20T00:11:45.313Z,9.443493
2023-04-20T00:12:45.266Z,9.443550
2023-04-20T00:13:45.252Z,9.443666
2023-04-20T00:14:45.261Z,9.443707
2023-04-20T00:15:46.251Z,9.443657
2023-04-20T00:16:45.290Z,9.443608
2023-04-20T00:17:45.266Z,9.443704
2023-04-20T00:18:45.284Z,9.443748
2023-04-20T00:19:45.218Z,9.443725
2023-04-20T00:20:45.226Z,9.443710
2023-04-20T00:21:45.250Z,9.443728
2023-04-20T00:22:45.214Z,9.443702
2023-04-20T00:23:45.185Z,9.443715
2023-04-20T00:24:45.232Z,9.443667
2023-04-20T00:25:45.226Z,9.443700
2023-04-20T00:26:45.237Z,9.443737
2023-04-20T00:27:45.170Z,9.443715
2023-04-20T00:28:45.206Z,9.443836
2023-04-20T00:29:45.168Z,9.443846
2023-04-20T00:30:45.251Z,9.443861
2023-04-20T00:31:45.136Z,9.443738
2023-04-20T00:32:45.209Z,9.443715
2023-04-20T00:33:45.220Z,9.443662
2023-04-20T00:34:45.133Z,9.443736
2023-04-20T00:35:45.117Z,9.443744
2023-04-20T00:36:45.127Z,9.443790
2023-04-20T00:37:45.087Z,9.443710
2023-04-20T00:38:45.098Z,9.443728
2023-04-20T00:39:45.108Z,9.443730
2023-04-20T00:40:45.071Z,9.443772
2023-04-20T00:41:45.070Z,9.443788
2023-04-20T00:42:45.133Z,9.443820
2023-04-20T00:43:45.040Z,9.443812
2023-04-20T00:44:45.069Z,9.443837
2023-04-20T00:45:45.084Z,9.443764
2023-04-20T00:46:45.443Z,9.443693
2023-04-20T00:47:45.068Z,9.443626
2023-04-20T00:48:45.047Z,9.443717
2023-04-20T00:49:45.010Z,9.443738
2023-04-20T00:50:45.066Z,9.443742
2023-04-20T00:51:45.037Z,9.443839
2023-04-20T00:52:45.116Z,9.443734
2023-04-20T00:53:44.980Z,9.443714
2023-04-20T00:54:45.021Z,9.443593
2023-04-20T00:55:44.998Z,9.443707
2023-04-20T00:56:44.984Z,9.443768
2023-04-20T00:57:45.018Z,9.443864
2023-04-20T00:58:44.997Z,9.443765
2023-04-20T00:59:44.989Z,9.443628
2023-04-20T01:00:44.984Z,9.443681
2023-04-20T01:01:44.989Z,9.443716
2023-04-20T01:02:45.077Z,9.443753
2023-04-20T01:03:45.232Z,9.443729
2023-04-20T01:04:44.942Z,9.443789
2023-04-20T01:05:44.974Z,9.443789
2023-04-20T01:06:44.961Z,9.443797
2023-04-20T01:07:44.926Z,9.443741
2023-04-20T01:08:44.963Z,9.443819
2023-04-20T01:09:44.959Z,9.443830
2023-04-20T01:10:44.965Z,9.443726
2023-04-20T01:11:44.991Z,9.443723
2023-04-20T01:12:44.968Z,9.443627
2023-04-20T01:13:44.998Z,9.443656
2023-04-20T01:14:44.873Z,9.443814
2023-04-20T01:15:44.989Z,9.443770
2023-04-20T01:16:45.038Z,9.443741
2023-04-20T01:17:44.874Z,9.443769
2023-04-20T01:18:44.923Z,9.443757
2023-04-20T01:19:44.847Z,9.443788
2023-04-20T01:20:44.822Z,9.443800
2023-04-20T01:21:44.838Z,9.443759
2023-04-20T01:22:44.932Z,9.443717
2023-04-20T01:23:44.812Z,9.443730
2023-04-20T01:24:45.019Z,9.443751
2023-04-20T01:25:44.793Z,9.443715
2023-04-20T01:26:44.808Z,9.443759
2023-04-20T01:27:44.823Z,9.443857
2023-04-20T01:28:44.775Z,9.443798
2023-04-20T01:29:44.762Z,9.443785
2023-04-20T01:30:44.818Z,9.443781
2023-04-20T01:31:44.849Z,9.443744
2023-04-20T01:32:44.884Z,9.443762
2023-04-20T01:33:44.810Z,9.443701
2023-04-20T01:34:44.822Z,9.443701
2023-04-20T01:35:44.812Z,9.443680
2023-04-20T01:36:44.800Z,9.443740
2023-04-20T01:37:44.707Z,9.443706
2023-04-20T01:38:44.737Z,9.443651
2023-04-20T01:39:44.850Z,9.443641
2023-04-20T01:40:44.785Z,9.443598
2023-04-20T01:41:44.668Z,9.443640
2023-04-20T01:42:44.682Z,9.443662
2023-04-20T01:43:44.703Z,9.443746
2023-04-20T01:44:44.655Z,9.443756
2023-04-20T01:45:44.669Z,9.443768
2023-04-20T01:46:44.703Z,9.443777
2023-04-20T01:47:44.742Z,9.443709
2023-04-20T01:48:44.659Z,9.443676
2023-04-20T01:49:44.658Z,9.443664
2023-04-20T01:50:44.652Z,9.443749
2023-04-20T01:51:44.642Z,9.443736
2023-04-20T01:52:44.629Z,9.443649
2023-04-20T01:53:44.617Z,9.443601
2023-04-20T01:54:44.614Z,9.443696
2023-04-20T01:55:44.651Z,9.443701
2023-04-20T01:56:44.620Z,9.443686
2023-04-20T01:57:44.582Z,9.443812
2023-04-20T01:58:44.613Z,9.443675
2023-04-20T01:59:44.573Z,9.443843
2023-04-20T02:00:44.644Z,9.443680
2023-04-20T02:01:44.650Z,9.443663
2023-04-20T02:02:44.772Z,9.443649
2023-04-20T02:03:44.813Z,9.443657
2023-04-20T02:04:44.592Z,9.443687
2023-04-20T02:05:44.549Z,9.443706
2023-04-20T02:06:44.555Z,9.443722
2023-04-20T02:07:44.570Z,9.443737
2023-04-20T02:08:44.510Z,9.443746
2023-04-20T02:09:44.508Z,9.443722
2023-04-20T02:10:44.527Z,9.443707
2023-04-20T02:11:44.552Z,9.443663
2023-04-20T02:12:44.485Z,9.443688
2023-04-20T02:13:44.550Z,9.443699
2023-04-20T02:14:44.473Z,9.443710
2023-04-20T02:15:44.500Z,9.443635
2023-04-20T02:16:44.545Z,9.443674
2023-04-20T02:17:44.462Z,9.443696
2023-04-20T02:18:44.469Z,9.443708
2023-04-20T02:19:44.467Z,9.443734
2023-04-20T02:20:44.423Z,9.443713
2023-04-20T02:21:44.462Z,9.443729
2023-04-20T02:22:44.441Z,9.443747
2023-04-20T02:23:44.707Z,9.443721
2023-04-20T02:24:44.434Z,9.443754
2023-04-20T02:25:44.427Z,9.443739
2023-04-20T02:26:44.418Z,9.443713
2023-04-20T02:27:44.408Z,9.443700
2023-04-20T02:28:44.422Z,9.443727
2023-04-20T02:29:45.006Z,9.443712
2023-04-20T02:30:44.403Z,9.443778
2023-04-20T02:31:44.436Z,9.443788
2023-04-20T02:32:44.452Z,9.443833
2023-04-20T02:33:44.367Z,9.443818
2023-04-20T02:34:44.369Z,9.443789
2023-04-20T02:35:44.384Z,9.443875
2023-04-20T02:36:44.373Z,9.443768
2023-04-20T02:37:44.339Z,9.443740
2023-04-20T03:02:23.301Z,9.443744
2023-04-20T03:03:23.184Z,9.443596
2023-04-20T03:04:23.086Z,9.443631
2023-04-20T03:05:23.016Z,9.443686
2023-04-20T03:06:22.972Z,9.443560
2023-04-20T03:07:22.975Z,9.443571
2023-04-20T03:08:22.911Z,9.443649
2023-04-20T03:09:22.930Z,9.443754
2023-04-20T03:10:22.893Z,9.443920
2023-04-20T03:11:22.944Z,9.443731
2023-04-20T03:12:22.912Z,9.443544
2023-04-20T03:13:22.891Z,9.443416
2023-04-20T03:14:22.866Z,9.443344
2023-04-20T03:15:22.872Z,9.443403
2023-04-20T03:16:22.889Z,9.443286
2023-04-20T03:17:23.064Z,9.443428
2023-04-20T03:18:22.872Z,9.443382
2023-04-20T03:19:22.847Z,9.443616
2023-04-20T03:20:22.863Z,9.443632
2023-04-20T03:21:23.702Z,9.443739
2023-04-20T03:22:22.851Z,9.443754
2023-04-20T03:23:22.832Z,9.443739
2023-04-20T03:24:22.805Z,9.443713
2023-04-20T03:25:22.790Z,9.443754
2023-04-20T03:26:22.800Z,9.443787
2023-04-20T03:27:22.800Z,9.443774
2023-04-20T03:28:22.837Z,9.443812
2023-04-20T03:29:22.816Z,9.443797
2023-04-20T03:30:22.760Z,9.443810
2023-04-20T03:31:22.770Z,9.443768
2023-04-20T03:32:22.824Z,9.443862
2023-04-20T03:33:22.758Z,9.443792
2023-04-20T03:34:22.779Z,9.443776
2023-04-20T03:35:22.768Z,9.443780
2023-04-20T03:36:22.761Z,9.443805
2023-04-20T03:37:22.750Z,9.443755
2023-04-20T03:38:22.792Z,9.443744
2023-04-20T03:39:22.701Z,9.443663
2023-04-20T03:40:22.734Z,9.443659
2023-04-20T03:41:22.700Z,9.443584
2023-04-20T03:42:22.708Z,9.443645
2023-04-20T03:43:22.729Z,9.443689
2023-04-20T03:44:22.704Z,9.443676
2023-04-20T03:45:22.689Z,9.443702
2023-04-20T03:46:23.485Z,9.443706
2023-04-20T03:47:23.716Z,9.443644
2023-04-20T03:48:22.706Z,9.443527
2023-04-20T03:49:22.694Z,9.443663
2023-04-20T03:50:22.674Z,9.443843
2023-04-20T03:51:22.677Z,9.443784
2023-04-20T03:52:22.684Z,9.443689
2023-04-20T03:53:22.637Z,9.443604
2023-04-20T03:54:22.635Z,9.443601
2023-04-20T03:55:22.653Z,9.443527
2023-04-20T03:56:22.610Z,9.443645
2023-04-20T03:57:22.675Z,9.443786
2023-04-20T03:58:22.637Z,9.443537
2023-04-20T03:59:22.606Z,9.443629
2023-04-20T04:00:22.702Z,9.443655
2023-04-20T04:01:22.614Z,9.443778
2023-04-20T04:02:22.921Z,9.443752
2023-04-20T04:03:22.840Z,9.443892
2023-04-20T04:04:22.885Z,9.443765
2023-04-20T04:05:22.797Z,9.443681
2023-04-20T04:06:22.551Z,9.443602
2023-04-20T04:07:22.589Z,9.443705
2023-04-20T04:08:22.560Z,9.443802
2023-04-20T04:09:22.617Z,9.443616
2023-04-20T04:10:22.521Z,9.443572
2023-04-20T04:11:22.586Z,9.443604
2023-04-20T04:12:22.533Z,9.443571
2023-04-20T04:13:22.523Z,9.443494
2023-04-20T04:14:22.500Z,9.443427
2023-04-20T04:15:22.570Z,9.443468
2023-04-20T04:16:22.508Z,9.443516
2023-04-20T04:17:22.536Z,9.443606
2023-04-20T04:18:22.515Z,9.443620
2023-04-20T04:19:22.470Z,9.443542
2023-04-20T04:20:22.460Z,9.443503
2023-04-20T04:21:22.467Z,9.443647
2023-04-20T04:22:22.496Z,9.443760
2023-04-20T04:23:22.489Z,9.443674
2023-04-20T04:24:22.462Z,9.443709
2023-04-20T04:25:22.420Z,9.443707
2023-04-20T04:26:23.048Z,9.443789
2023-04-20T04:27:22.428Z,9.443640
2023-04-20T04:28:22.384Z,9.443628
2023-04-20T04:29:22.450Z,9.443665
2023-04-20T04:30:22.435Z,9.443723
2023-04-20T04:31:22.425Z,9.443604
2023-04-20T04:32:22.392Z,9.443586
2023-04-20T04:33:22.374Z,9.443521
2023-04-20T04:34:22.347Z,9.443597
2023-04-20T04:35:22.660Z,9.443715
2023-04-20T04:36:22.336Z,9.443701
2023-04-20T04:37:22.371Z,9.443670
2023-04-20T04:38:22.390Z,9.443633
2023-04-20T04:39:22.377Z,9.443649
2023-04-20T04:40:22.374Z,9.443631
2023-04-20T04:41:22.354Z,9.443508
2023-04-20T04:42:22.336Z,9.443584
2023-04-20T04:43:22.305Z,9.443414
2023-04-20T04:44:22.311Z,9.443484
2023-04-20T04:45:22.328Z,9.443575
2023-04-20T04:46:22.321Z,9.443729
2023-04-20T04:47:22.482Z,9.443696
2023-04-20T04:48:22.320Z,9.443635
2023-04-20T04:49:22.267Z,9.443615
2023-04-20T04:50:22.283Z,9.443654
2023-04-20T04:51:22.292Z,9.443605
2023-04-20T04:52:22.302Z,9.443741
2023-04-20T04:53:22.241Z,9.443707
2023-04-20T04:54:22.256Z,9.443587
2023-04-20T04:55:22.257Z,9.443397
2023-04-20T04:56:22.219Z,9.443697
2023-04-20T04:57:22.244Z,9.443768
2023-04-20T04:58:22.213Z,9.443758
2023-04-20T04:59:22.245Z,9.443719
2023-04-20T05:00:22.248Z,9.443707
2023-04-20T05:01:22.302Z,9.443742
2023-04-20T05:02:22.424Z,9.443754
2023-04-20T05:03:22.374Z,9.443784
2023-04-20T05:04:22.270Z,9.443707
2023-04-20T05:05:22.217Z,9.443707
2023-04-20T05:06:22.191Z,9.443701
2023-04-20T05:07:22.194Z,9.443733
2023-04-20T05:08:22.161Z,9.443718
2023-04-20T05:09:22.165Z,9.443795
2023-04-20T05:10:22.198Z,9.443745
2023-04-20T05:11:22.135Z,9.443701
2023-04-20T05:12:22.215Z,9.443732
2023-04-20T05:13:22.177Z,9.443696
2023-04-20T05:14:22.154Z,9.443739
2023-04-20T05:15:22.145Z,9.443699
2023-04-20T05:16:22.160Z,9.443690
2023-04-20T05:17:25.238Z,9.443691
2023-04-20T05:18:22.130Z,9.443739
2023-04-20T05:19:22.107Z,9.443736
2023-04-20T05:20:22.116Z,9.443734
2023-04-20T05:21:22.152Z,9.443715
2023-04-20T05:22:22.076Z,9.443780
2023-04-20T05:23:22.072Z,9.443772
2023-04-20T05:24:22.070Z,9.443797
2023-04-20T05:25:22.121Z,9.443750
2023-04-20T05:26:22.060Z,9.443746
2023-04-20T05:27:22.053Z,9.443721
2023-04-20T05:28:22.054Z,9.443697
2023-04-20T05:29:22.089Z,9.443711
2023-04-20T05:30:22.307Z,9.443785
2023-04-20T05:31:22.054Z,9.443815
2023-04-20T05:32:22.097Z,9.443712
2023-04-20T05:33:22.066Z,9.443709
2023-04-20T05:34:22.027Z,9.443709
2023-04-20T05:35:22.011Z,9.443720
2023-04-20T05:36:22.024Z,9.443767
2023-04-20T05:37:21.973Z,9.443736
2023-04-20T05:38:21.950Z,9.443779
2023-04-20T05:39:21.971Z,9.443752
2023-04-20T05:40:21.965Z,9.443742
2023-04-20T05:41:21.994Z,9.443798
2023-04-20T05:42:21.978Z,9.443777
2023-04-20T05:43:21.966Z,9.443735
2023-04-20T05:44:21.925Z,9.443737
2023-04-20T05:45:21.969Z,9.443656
2023-04-20T05:46:21.969Z,9.443785
2023-04-20T05:47:21.936Z,9.443667
2023-04-20T05:48:21.911Z,9.443684
2023-04-20T05:49:21.914Z,9.443716
2023-04-20T05:50:21.937Z,9.443746
2023-04-20T05:51:21.931Z,9.443742
2023-04-20T05:52:21.905Z,9.443686
2023-04-20T05:53:21.885Z,9.443615
2023-04-20T05:54:21.878Z,9.443671
2023-04-20T05:55:22.834Z,9.443711
2023-04-20T05:56:22.883Z,9.443704
2023-04-20T05:57:21.892Z,9.443724
2023-04-20T05:58:21.898Z,9.443773
2023-04-20T05:59:22.619Z,9.443718
2023-04-20T06:00:24.445Z,9.443646
2023-04-20T06:01:21.865Z,9.443628
2023-04-20T06:02:22.005Z,9.443750
2023-04-20T06:03:22.090Z,9.443765
2023-04-20T06:04:22.059Z,9.443654
2023-04-20T06:05:21.949Z,9.443554
2023-04-20T06:06:21.807Z,9.443527
2023-04-20T06:07:21.833Z,9.443536
2023-04-20T06:08:21.828Z,9.443498
2023-04-20T06:09:21.800Z,9.443420
2023-04-20T06:10:21.802Z,9.443604
2023-04-20T06:11:21.840Z,9.443796
2023-04-20T06:12:21.775Z,9.443627
2023-04-20T06:13:21.786Z,9.443501
2023-04-20T06:14:22.595Z,9.443511
2023-04-20T06:15:21.790Z,9.443596
2023-04-20T06:16:21.801Z,9.443639
2023-04-20T06:17:21.758Z,9.443771
2023-04-20T06:18:21.721Z,9.443692
2023-04-20T06:19:21.810Z,9.443690
2023-04-20T06:20:21.733Z,9.443728
2023-04-20T06:21:21.732Z,9.443612
2023-04-20T06:22:21.720Z,9.443527
2023-04-20T06:23:21.723Z,9.443590
2023-04-20T06:24:21.824Z,9.443726
2023-04-20T06:25:21.719Z,9.443725
2023-04-20T06:26:21.744Z,9.443659
2023-04-20T06:27:21.701Z,9.443712
2023-04-20T06:28:21.692Z,9.443725
2023-04-20T06:29:21.681Z,9.443724
2023-04-20T06:30:21.684Z,9.443737
2023-04-20T06:31:21.698Z,9.443764
2023-04-20T06:32:21.719Z,9.443718
2023-04-20T06:33:21.647Z,9.443711
2023-04-20T06:34:21.639Z,9.443734
2023-04-20T06:35:21.741Z,9.443748
2023-04-20T06:36:21.623Z,9.443753
2023-04-20T06:37:21.630Z,9.443723
2023-04-20T06:38:21.649Z,9.443818
2023-04-20T06:39:21.660Z,9.443764
2023-04-20T06:40:21.618Z,9.443757
2023-04-20T06:41:21.599Z,9.443704
2023-04-20T06:42:21.634Z,9.443751
2023-04-20T06:43:21.594Z,9.443698
2023-04-20T06:44:21.560Z,9.443686
2023-04-20T06:45:21.576Z,9.443699
2023-04-20T06:46:21.611Z,9.443732
2023-04-20T06:47:21.630Z,9.443737
2023-04-20T06:48:31.367Z,9.443724
2023-04-20T06:49:23.558Z,9.443721
2023-04-20T06:50:21.562Z,9.443737
2023-04-20T06:51:21.559Z,9.443715
2023-04-20T06:52:21.597Z,9.443789
2023-04-20T06:53:21.597Z,9.443737
2023-04-20T06:54:21.528Z,9.443769
2023-04-20T06:55:21.514Z,9.443742
2023-04-20T06:56:21.572Z,9.443717
2023-04-20T06:57:21.566Z,9.443711
2023-04-20T06:58:21.550Z,9.443663
2023-04-20T06:59:21.488Z,9.443667
2023-04-20T07:00:21.504Z,9.443694
2023-04-20T07:01:21.537Z,9.443667
2023-04-20T07:02:21.602Z,9.443669
2023-04-20T07:03:21.643Z,9.443688
2023-04-20T07:04:21.575Z,9.443707
2023-04-20T07:05:21.467Z,9.443720
2023-04-20T07:06:21.503Z,9.443789
2023-04-20T07:07:21.459Z,9.443774
2023-04-20T07:08:21.455Z,9.443756
2023-04-20T07:09:21.475Z,9.443776
2023-04-20T07:10:21.448Z,9.443734
2023-04-20T07:11:21.506Z,9.443708
2023-04-20T07:12:21.437Z,9.443714
2023-04-20T07:13:21.412Z,9.443583
2023-04-20T07:14:21.400Z,9.443667
2023-04-20T07:15:22.159Z,9.443681
2023-04-20T07:16:21.395Z,9.443754
2023-04-20T07:17:21.398Z,9.443723
2023-04-20T07:18:21.367Z,9.443705
2023-04-20T07:19:21.369Z,9.443666
2023-04-20T07:20:21.400Z,9.443740
2023-04-20T07:21:21.409Z,9.443791
2023-04-20T07:22:21.355Z,9.443810
2023-04-20T07:23:22.108Z,9.443773
2023-04-20T07:24:21.418Z,9.443754
2023-04-20T07:25:21.437Z,9.443706
2023-04-20T07:26:21.343Z,9.443623
2023-04-20T07:27:58.384Z,9.443564
2023-04-20T07:28:21.386Z,9.443638
2023-04-20T07:29:57.107Z,9.443766
2023-04-20T07:30:56.364Z,9.443739
2023-04-20T07:31:53.839Z,9.443677
2023-04-20T07:32:55.180Z,9.443765
2023-04-20T07:33:53.763Z,9.443692
2023-04-20T07:37:59.748Z,9.443544
2023-04-20T07:38:23.745Z,9.443547
2023-04-20T07:39:23.720Z,9.443693
2023-04-20T07:40:23.695Z,9.443713
2023-04-20T07:41:59.747Z,9.443683
2023-04-20T07:42:23.863Z,9.443669
2023-04-20T07:43:23.830Z,9.443766
2023-04-20T07:44:23.686Z,9.443691
2023-04-20T07:45:23.793Z,9.443679
2023-04-20T07:46:23.934Z,9.443745
2023-04-20T07:47:23.869Z,9.443702
2023-04-20T07:48:24.262Z,9.443715
2023-04-20T07:49:24.959Z,9.443670
2023-04-20T07:50:23.649Z,9.443737
2023-04-20T07:51:23.583Z,9.443629
2023-04-20T07:52:23.647Z,9.443645
2023-04-20T07:53:23.753Z,9.443640
2023-04-20T07:54:23.545Z,9.443718
2023-04-20T07:55:23.575Z,9.443751
2023-04-20T07:56:23.711Z,9.443751
2023-04-20T07:57:23.698Z,9.443666
2023-04-20T07:58:23.584Z,9.443648
2023-04-20T07:59:23.551Z,9.443687
2023-04-20T08:00:23.638Z,9.443769
2023-04-20T08:01:23.555Z,9.443871
2023-04-20T08:02:23.741Z,9.443862
2023-04-20T08:03:23.623Z,9.443823
2023-04-20T08:04:23.925Z,9.443688
2023-04-20T08:05:23.794Z,9.443670
2023-04-20T08:06:23.728Z,9.443699
2023-04-20T08:07:23.529Z,9.443679
2023-04-20T08:08:23.452Z,9.443784
2023-04-20T08:09:23.517Z,9.443826
2023-04-20T08:10:23.570Z,9.443762
2023-04-20T08:11:23.484Z,9.443687
2023-04-20T08:12:23.521Z,9.443727
2023-04-20T08:13:23.517Z,9.443652
2023-04-20T08:14:23.471Z,9.443746
2023-04-20T08:15:23.427Z,9.443789
2023-04-20T08:16:24.085Z,9.443742
2023-04-20T08:17:23.457Z,9.443707
2023-04-20T08:18:24.269Z,9.443720
2023-04-20T08:19:23.492Z,9.443764
2023-04-20T08:20:23.373Z,9.443736
2023-04-20T08:21:25.414Z,9.443585
2023-04-20T08:22:24.365Z,9.443666
2023-04-20T08:23:23.433Z,9.443738
2023-04-20T08:24:23.362Z,9.443764
2023-04-20T08:25:25.250Z,9.443770
2023-04-20T08:26:23.389Z,9.443572
2023-04-20T08:27:23.457Z,9.443605
2023-04-20T08:28:33.318Z,9.443742
2023-04-20T08:29:25.413Z,9.443723
2023-04-20T08:30:23.403Z,9.443697
2023-04-20T08:31:23.773Z,9.443595
2023-04-20T08:32:23.336Z,9.443521
2023-04-20T08:33:23.292Z,9.443493
2023-04-20T08:34:23.301Z,9.443598
2023-04-20T08:35:23.415Z,9.443660
2023-04-20T08:36:23.347Z,9.443727
2023-04-20T08:37:23.323Z,9.443679
2023-04-20T08:38:32.931Z,9.443563
2023-04-20T08:39:25.311Z,9.443636
2023-04-20T08:40:23.299Z,9.443636
2023-04-20T08:41:23.349Z,9.443644
2023-04-20T08:42:23.276Z,9.443696
2023-04-20T08:43:23.275Z,9.443638
2023-04-20T08:44:23.480Z,9.443644
2023-04-20T08:45:23.468Z,9.443616
2023-04-20T08:46:23.330Z,9.443732
2023-04-20T08:47:23.246Z,9.443703
2023-04-20T08:48:23.217Z,9.443677
2023-04-20T08:49:23.207Z,9.443689
2023-04-20T08:50:23.500Z,9.443634
2023-04-20T08:51:23.244Z,9.443666
2023-04-20T08:52:23.200Z,9.443704
2023-04-20T08:53:23.162Z,9.443653
2023-04-20T08:54:24.739Z,9.443626
2023-04-20T08:55:24.257Z,9.443633
2023-04-20T08:56:23.951Z,9.443592
2023-04-20T08:57:23.992Z,9.443505
2023-04-20T08:58:23.450Z,9.443640
2023-04-20T08:59:23.415Z,9.443626
2023-04-20T09:00:23.498Z,9.443707
2023-04-20T09:01:34.312Z,9.443614
2023-04-20T09:02:25.136Z,9.443598
2023-04-20T09:03:58.488Z,9.443523
2023-04-20T09:04:23.519Z,9.443606
2023-04-20T09:05:23.322Z,9.443671
2023-04-20T09:06:23.467Z,9.443754
2023-04-20T09:07:24.134Z,9.443644
2023-04-20T09:08:23.112Z,9.443622
2023-04-20T09:09:23.306Z,9.443696
2023-04-20T09:10:23.874Z,9.443739
2023-04-20T09:11:23.185Z,9.443708
2023-04-20T09:12:23.114Z,9.443699
2023-04-20T09:13:23.059Z,9.443570
2023-04-20T09:14:23.093Z,9.443577
2023-04-20T09:15:23.208Z,9.443592
2023-04-20T09:16:23.819Z,9.443547
2023-04-20T09:17:23.117Z,9.443487
2023-04-20T09:18:23.076Z,9.443484
2023-04-20T09:19:23.046Z,9.443608
2023-04-20T09:20:23.053Z,9.443640
2023-04-20T09:21:23.018Z,9.443809
2023-04-20T09:22:23.048Z,9.443727
2023-04-20T09:23:23.043Z,9.443878
2023-04-20T09:24:23.018Z,9.443794
2023-04-20T09:25:22.976Z,9.443722
2023-04-20T09:26:23.044Z,9.443674
2023-04-20T09:27:22.958Z,9.443739
2023-04-20T09:28:22.996Z,9.443773
2023-04-20T09:29:22.967Z,9.443759
2023-04-20T09:30:22.986Z,9.443740
2023-04-20T09:31:23.001Z,9.443627
2023-04-20T09:32:23.103Z,9.443632
2023-04-20T09:33:23.558Z,9.443612
2023-04-20T09:34:22.987Z,9.443749
2023-04-20T09:35:22.924Z,9.443684
2023-04-20T09:36:22.976Z,9.444012
2023-04-20T09:37:22.935Z,9.443806
2023-04-20T09:38:22.922Z,9.443706
2023-04-20T09:39:22.925Z,9.443800
2023-04-20T09:40:22.940Z,9.443640
2023-04-20T09:41:22.907Z,9.443680
2023-04-20T09:42:22.923Z,9.443491
2023-04-20T09:43:22.919Z,9.443731
2023-04-20T09:44:22.903Z,9.443871
2023-04-20T09:45:22.915Z,9.443856
2023-04-20T09:46:22.993Z,9.443727
2023-04-20T09:47:22.940Z,9.443819
2023-04-20T09:48:22.853Z,9.443763
2023-04-20T09:49:22.926Z,9.443909
2023-04-20T09:50:29.183Z,9.443989
2023-04-20T09:51:25.020Z,9.443824
2023-04-20T09:52:22.872Z,9.443934
2023-04-20T09:53:22.909Z,9.443825
2023-04-20T09:54:22.858Z,9.443816
2023-04-20T09:55:22.851Z,9.443853
2023-04-20T09:56:22.821Z,9.443892
2023-04-20T09:57:22.785Z,9.444078
2023-04-20T09:58:22.998Z,9.444311
2023-04-20T09:59:22.811Z,9.444114
2023-04-20T10:00:22.788Z,9.444234
2023-04-20T10:01:22.834Z,9.444151
2023-04-20T10:02:22.932Z,9.443623
2023-04-20T10:03:22.879Z,9.443506
2023-04-20T10:04:24.230Z,9.443531
2023-04-20T10:05:22.795Z,9.443654
2023-04-20T10:06:22.817Z,9.443794
2023-04-20T10:07:22.823Z,9.443824
2023-04-20T10:08:22.746Z,9.443802
2023-04-20T10:09:22.773Z,9.443751
2023-04-20T10:10:22.727Z,9.443726
2023-04-20T10:11:22.773Z,9.443744
2023-04-20T10:12:22.840Z,9.443722
2023-04-20T10:13:22.854Z,9.443689
2023-04-20T10:14:22.719Z,9.443659
2023-04-20T10:15:22.686Z,9.443677
2023-04-20T10:16:22.751Z,9.443708
2023-04-20T10:17:22.845Z,9.443714
2023-04-20T10:18:23.821Z,9.443654
2023-04-20T10:19:22.985Z,9.443624
2023-04-20T10:20:22.664Z,9.443676
2023-04-20T10:21:22.812Z,9.443623
2023-04-20T10:22:22.644Z,9.443671
2023-04-20T10:23:22.686Z,9.443664
2023-04-20T10:24:22.894Z,9.443656
2023-04-20T10:25:22.632Z,9.443657
2023-04-20T10:26:22.664Z,9.443663
2023-04-20T10:27:22.610Z,9.443662
2023-04-20T10:28:22.688Z,9.443668
2023-04-20T10:29:22.671Z,9.443690
2023-04-20T10:30:22.600Z,9.443746
2023-04-20T10:31:22.682Z,9.443731
2023-04-20T10:32:22.755Z,9.443704
2023-04-20T10:33:22.616Z,9.443662
2023-04-20T10:34:22.607Z,9.443690
2023-04-20T10:35:22.585Z,9.443652
2023-04-20T10:36:22.570Z,9.443678
2023-04-20T10:37:22.714Z,9.443620
2023-04-20T10:38:22.559Z,9.443622
2023-04-20T10:39:22.869Z,9.443651
2023-04-20T10:40:22.556Z,9.443683
2023-04-20T10:41:22.555Z,9.443659
2023-04-20T10:42:22.534Z,9.443711
2023-04-20T10:43:22.676Z,9.443765
2023-04-20T10:44:22.573Z,9.443748
2023-04-20T10:45:22.504Z,9.443692
2023-04-20T10:46:22.520Z,9.443658
2023-04-20T10:47:22.547Z,9.443662
2023-04-20T10:48:22.503Z,9.443684
2023-04-20T10:49:22.536Z,9.443648
2023-04-20T10:50:22.518Z,9.443672
2023-04-20T10:51:22.500Z,9.443652
2023-04-20T10:52:22.501Z,9.443642
2023-04-20T10:53:22.525Z,9.443648
2023-04-20T10:54:22.470Z,9.443661
2023-04-20T10:55:22.439Z,9.443675
2023-04-20T10:56:22.443Z,9.443681
2023-04-20T10:57:22.441Z,9.443686
2023-04-20T10:58:22.446Z,9.443681
2023-04-20T10:59:22.426Z,9.443704
2023-04-20T11:00:22.447Z,9.443682
2023-04-20T11:01:22.445Z,9.443690
2023-04-20T11:02:22.638Z,9.443711
2023-04-20T11:03:24.312Z,9.443730
2023-04-20T11:04:22.473Z,9.443726
2023-04-20T11:05:22.675Z,9.443703
2023-04-20T11:06:22.378Z,9.443660
2023-04-20T11:07:22.376Z,9.443679
2023-04-20T11:08:22.410Z,9.443667
2023-04-20T11:09:22.463Z,9.443685
2023-04-20T11:10:22.378Z,9.443698
2023-04-20T11:11:23.415Z,9.443697
2023-04-20T11:12:22.346Z,9.443663
2023-04-20T11:13:22.377Z,9.443708
2023-04-20T11:14:22.375Z,9.443724
2023-04-20T11:15:22.339Z,9.443688
2023-04-20T11:16:22.480Z,9.443625
2023-04-20T11:17:22.364Z,9.443661
2023-04-20T11:18:22.380Z,9.443666
2023-04-20T11:19:22.295Z,9.443703
2023-04-20T11:20:22.287Z,9.443736
2023-04-20T11:21:22.305Z,9.443758
2023-04-20T11:22:22.280Z,9.443709
2023-04-20T11:23:22.303Z,9.443649
2023-04-20T11:24:22.307Z,9.443607
2023-04-20T11:25:22.365Z,9.443591
2023-04-20T11:26:22.259Z,9.443655
2023-04-20T11:27:22.267Z,9.443711
2023-04-20T11:28:27.069Z,9.443693
2023-04-20T11:29:22.910Z,9.443713
2023-04-20T11:30:22.235Z,9.443695
2023-04-20T11:31:22.274Z,9.443666
2023-04-20T11:32:22.426Z,9.443717
2023-04-20T11:33:22.370Z,9.443673
2023-04-20T11:34:22.259Z,9.443685
2023-04-20T11:35:22.187Z,9.443609
2023-04-20T11:36:22.199Z,9.443706
2023-04-20T11:37:22.245Z,9.443687
2023-04-20T11:38:22.251Z,9.443757
2023-04-20T11:39:22.223Z,9.443688
2023-04-20T11:40:22.180Z,9.443711
2023-04-20T11:41:22.262Z,9.443735
2023-04-20T11:42:22.305Z,9.443719
2023-04-20T11:43:22.178Z,9.443717
2023-04-20T11:44:22.183Z,9.443746
2023-04-20T11:45:23.260Z,9.443696
2023-04-20T11:46:22.207Z,9.443738
2023-04-20T11:47:22.169Z,9.443714
2023-04-20T11:48:22.130Z,9.443721
2023-04-20T11:49:22.178Z,9.443725
2023-04-20T11:50:22.117Z,9.443728
2023-04-20T11:51:22.094Z,9.443722
2023-04-20T11:52:22.111Z,9.443705
2023-04-20T11:53:22.093Z,9.443753
2023-04-20T11:54:22.141Z,9.443741
2023-04-20T11:55:22.122Z,9.443848
2023-04-20T11:56:22.073Z,9.443828
2023-04-20T11:57:22.085Z,9.443754
2023-04-20T11:58:22.090Z,9.443681
2023-04-20T11:59:22.075Z,9.443681
2023-04-20T12:00:22.048Z,9.443766
2023-04-20T12:01:22.044Z,9.443795
2023-04-20T12:02:22.153Z,9.443775
2023-04-20T12:03:22.378Z,9.443778
2023-04-20T12:04:22.322Z,9.443767
2023-04-20T12:05:22.111Z,9.443807
2023-04-20T12:06:22.125Z,9.443806
2023-04-20T12:07:22.820Z,9.443810
2023-04-20T12:08:21.995Z,9.443780
2023-04-20T12:09:22.042Z,9.443814
2023-04-20T12:10:22.020Z,9.443759
2023-04-20T12:11:21.998Z,9.443645